createdAt,value
2023-04-19T00:00:42.479Z,9.35
2023-04-19T00:03:10.364Z,10.20
2023-04-19T00:05:37.119Z,10.85
2023-04-19T00:08:04.326Z,9.73
2023-04-19T00:10:30.931Z,10.00
2023-04-19T00:12:57.503Z,10.63
2023-04-19T00:15:24.021Z,10.38
2023-04-19T00:17:50.572Z,9.45
2023-04-19T00:20:17.087Z,9.95
2023-04-19T00:22:43.605Z,11.10
2023-04-19T00:25:10.206Z,9.93
2023-04-19T00:27:36.691Z,9.73
2023-04-19T00:30:03.357Z,10.90
2023-04-19T00:32:29.921Z,10.60
2023-04-19T00:34:56.487Z,10.38
2023-04-19T00:37:23.062Z,9.43
2023-04-19T00:39:49.539Z,9.93
2023-04-19T00:42:16.065Z,10.35
2023-04-19T00:44:42.622Z,9.98
2023-04-19T00:47:09.237Z,10.77
2023-04-19T00:49:37.195Z,10.38
2023-04-19T00:52:03.899Z,11.75
2023-04-19T00:54:30.795Z,11.27
2023-04-19T00:56:57.318Z,10.38
2023-04-19T00:59:25.008Z,9.82
2023-04-19T01:01:51.792Z,9.80
2023-04-19T01:04:18.711Z,11.20
2023-04-19T01:06:45.776Z,10.65
2023-04-19T01:09:12.389Z,10.52
2023-04-19T01:11:39.114Z,10.18
2023-04-19T01:14:06.428Z,10.85
2023-04-19T01:16:33.038Z,11.25
2023-04-19T01:18:59.618Z,10.55
2023-04-19T01:21:26.131Z,10.52
2023-04-19T01:23:52.673Z,11.20
2023-04-19T01:26:20.956Z,10.77
2023-04-19T01:28:47.469Z,11.50
2023-04-19T01:31:14.025Z,10.80
2023-04-19T01:33:40.546Z,10.07
2023-04-19T01:36:07.575Z,10.38
2023-04-19T01:38:34.161Z,10.50
2023-04-19T01:41:00.669Z,10.32
2023-04-19T01:43:27.149Z,11.30
2023-04-19T01:45:53.704Z,10.38
2023-04-19T01:48:20.187Z,10.10
2023-04-19T01:50:46.722Z,11.02
2023-04-19T01:53:13.346Z,10.80
2023-04-19T01:55:39.859Z,10.07
2023-04-19T01:58:06.355Z,11.18
2023-04-19T02:00:32.935Z,11.55
2023-04-19T02:02:59.564Z,10.65
2023-04-19T02:05:26.166Z,10.68
2023-04-19T02:07:52.693Z,10.27
2023-04-19T02:10:19.233Z,10.20
2023-04-19T02:12:45.790Z,11.02
2023-04-19T02:15:12.357Z,12.52
2023-04-19T02:17:39.032Z,11.40
2023-04-19T02:20:06.505Z,11.20
2023-04-19T02:22:33.010Z,12.15
2023-04-19T02:24:59.506Z,11.80
2023-04-19T02:27:26.031Z,11.57
2023-04-19T02:29:52.561Z,11.30
2023-04-19T02:32:19.082Z,12.07
2023-04-19T02:34:45.609Z,11.45
2023-04-19T02:37:12.098Z,11.43
2023-04-19T02:39:38.559Z,10.40
2023-04-19T02:42:05.736Z,10.95
2023-04-19T02:44:32.242Z,11.55
2023-04-19T02:46:58.754Z,10.73
2023-04-19T02:49:25.244Z,10.88
2023-04-19T02:51:51.762Z,10.85
2023-04-19T02:54:18.419Z,11.00
2023-04-19T02:56:44.886Z,10.40
2023-04-19T02:59:11.407Z,11.70
2023-04-19T03:01:38.054Z,12.48
2023-04-19T03:04:04.822Z,11.55
2023-04-19T03:06:31.331Z,11.50
2023-04-19T03:08:57.874Z,10.32
2023-04-19T03:11:24.376Z,11.10
2023-04-19T03:13:50.850Z,11.15
2023-04-19T03:16:17.660Z,10.63
2023-04-19T03:18:44.686Z,11.48
2023-04-19T03:21:12.327Z,12.25
2023-04-19T03:23:38.844Z,12.32
2023-04-19T03:26:05.422Z,11.82
2023-04-19T03:28:31.944Z,11.43
2023-04-19T03:30:58.446Z,12.00
2023-04-19T03:33:25.004Z,10.57
2023-04-19T03:35:51.505Z,11.82
2023-04-19T03:38:17.993Z,11.32
2023-04-19T03:40:44.504Z,11.70
2023-04-19T03:43:10.979Z,11.15
2023-04-19T03:45:37.437Z,11.10
2023-04-19T03:48:04.100Z,10.68
2023-04-19T03:50:30.606Z,11.10
2023-04-19T03:52:57.092Z,10.88
2023-04-19T03:55:23.634Z,10.48
2023-04-19T03:57:50.113Z,10.65
2023-04-19T04:00:16.927Z,11.18
2023-04-19T04:02:43.600Z,11.70
2023-04-19T04:05:10.289Z,10.93
2023-04-19T04:07:36.898Z,10.15
2023-04-19T04:10:03.670Z,11.25
2023-04-19T04:12:30.230Z,11.10
2023-04-19T04:14:56.738Z,10.20
2023-04-19T04:17:23.301Z,10.43
2023-04-19T04:19:49.998Z,10.93
2023-04-19T04:22:17.042Z,10.68
2023-04-19T04:24:43.774Z,11.68
2023-04-19T04:27:11.053Z,9.68
2023-04-19T04:29:38.334Z,10.60
2023-04-19T04:32:07.388Z,10.23
2023-04-19T04:34:34.422Z,9.98
2023-04-19T04:37:01.149Z,10.27
2023-04-19T04:39:28.622Z,11.68
2023-04-19T04:41:55.404Z,11.30
2023-04-19T04:44:21.932Z,11.57
2023-04-19T04:46:48.449Z,10.38
2023-04-19T04:49:15.100Z,12.27
2023-04-19T04:51:41.672Z,12.43
2023-04-19T04:54:08.194Z,10.85
2023-04-19T04:56:34.846Z,11.65
2023-04-19T04:59:01.367Z,12.02
2023-04-19T05:01:27.930Z,11.00
2023-04-19T05:03:54.433Z,11.13
2023-04-19T05:06:20.961Z,11.68
2023-04-19T05:08:47.453Z,10.82
2023-04-19T05:11:14.318Z,11.98
2023-04-19T05:13:40.845Z,11.75
2023-04-19T05:16:07.465Z,10.85
2023-04-19T05:18:34.111Z,10.13
2023-04-19T05:21:00.625Z,10.95
2023-04-19T05:23:27.138Z,11.70
2023-04-19T05:25:53.615Z,10.73
2023-04-19T05:28:20.141Z,10.00
2023-04-19T05:30:46.810Z,10.05
2023-04-19T05:33:13.317Z,9.52
2023-04-19T05:35:39.791Z,9.45
2023-04-19T05:38:06.316Z,9.10
2023-04-19T05:40:32.927Z,10.68
2023-04-19T05:42:59.400Z,10.02
2023-04-19T05:45:26.354Z,9.68
2023-04-19T05:47:52.966Z,9.23
2023-04-19T05:50:19.730Z,9.68
2023-04-19T05:52:46.395Z,9.27
2023-04-19T05:55:12.955Z,9.63
2023-04-19T05:57:39.535Z,8.98
2023-04-19T06:00:06.769Z,9.35
2023-04-19T06:02:33.450Z,9.15
2023-04-19T06:05:02.627Z,8.82
2023-04-19T06:07:40.158Z,8.50
2023-04-19T06:10:10.510Z,8.55
2023-04-19T06:12:37.075Z,8.13
2023-04-19T06:15:03.909Z,8.20
2023-04-19T06:17:30.479Z,8.57
2023-04-19T06:19:57.050Z,8.43
2023-04-19T06:22:23.553Z,7.57
2023-04-19T06:24:50.128Z,7.57
2023-04-19T06:27:17.129Z,7.80
2023-04-19T06:29:43.869Z,7.70
2023-04-19T06:32:10.904Z,7.22
2023-04-19T06:34:37.490Z,6.65
2023-04-19T06:37:04.114Z,6.60
2023-04-19T07:21:33.334Z,4.35
2023-04-19T07:24:00.015Z,3.80
2023-04-19T07:26:26.595Z,4.35
2023-04-19T07:50:05.879Z,4.38
2023-04-19T07:58:41.485Z,4.63
2023-04-19T08:01:08.480Z,4.38
2023-04-19T08:03:56.397Z,4.80
2023-04-19T08:06:32.256Z,4.13
2023-04-19T08:09:04.030Z,4.78
2023-04-19T08:18:17.667Z,4.97
2023-04-19T08:21:31.342Z,4.32
2023-04-19T08:24:32.249Z,3.88
2023-04-19T08:30:50.710Z,4.45
2023-04-19T08:33:26.361Z,4.63
2023-04-19T08:35:59.138Z,4.63
2023-04-19T08:38:25.778Z,4.63
2023-04-19T08:40:55.166Z,4.68
2023-04-19T08:43:28.632Z,5.20
2023-04-19T08:45:58.644Z,4.28
2023-04-19T08:48:26.824Z,5.20
2023-04-19T08:51:04.887Z,4.18
2023-04-19T08:53:34.360Z,4.43
2023-04-19T09:01:07.129Z,5.03
2023-04-19T09:03:43.963Z,5.00
2023-04-19T09:06:18.144Z,4.85
2023-04-19T09:14:16.920Z,4.82
2023-04-19T09:16:52.286Z,4.75
2023-04-19T09:19:24.629Z,4.75
2023-04-19T09:21:55.301Z,4.70
2023-04-19T09:27:11.337Z,4.80
2023-04-19T09:29:39.081Z,4.70
2023-04-19T10:35:56.652Z,3.00
2023-04-19T10:38:39.378Z,2.92
2023-04-19T10:41:06.782Z,3.58
2023-04-19T10:43:34.267Z,3.15
2023-04-19T10:46:06.745Z,3.05
2023-04-19T10:48:38.509Z,3.40
2023-04-19T10:51:13.315Z,3.33
2023-04-19T10:53:50.044Z,3.20
2023-04-19T10:56:34.682Z,2.83
2023-04-19T10:59:01.219Z,3.35
2023-04-19T11:01:40.788Z,3.50
2023-04-19T11:04:09.266Z,3.05
2023-04-19T11:06:37.427Z,2.95
2023-04-19T11:09:06.561Z,3.22
2023-04-19T11:11:36.673Z,3.33
2023-04-19T11:14:03.867Z,3.00
2023-04-19T11:16:42.336Z,3.22
2023-04-19T11:19:19.369Z,2.67
2023-04-19T11:21:47.308Z,2.63
2023-04-19T11:24:14.766Z,2.85
2023-04-19T11:26:44.314Z,2.30
2023-04-19T11:31:37.588Z,2.45
2023-04-19T11:34:04.617Z,2.55
2023-04-19T11:36:31.779Z,2.50
2023-04-19T11:38:58.703Z,2.92
2023-04-19T11:41:25.266Z,2.60
2023-04-19T11:43:52.111Z,2.60
2023-04-19T11:46:18.814Z,2.88
2023-04-19T11:48:53.090Z,2.28
2023-04-19T11:51:20.654Z,3.03
2023-04-19T11:53:48.019Z,2.15
2023-04-19T11:56:15.824Z,3.45
2023-04-19T12:01:53.135Z,2.53
2023-04-19T12:04:28.000Z,2.35
2023-04-19T12:06:59.476Z,1.73
2023-04-19T12:09:39.392Z,1.75
2023-04-19T12:25:55.429Z,1.85
2023-04-19T12:28:25.385Z,2.00
2023-04-19T12:31:21.004Z,1.55
2023-04-19T12:33:48.340Z,2.30
2023-04-19T12:36:16.336Z,2.50
2023-04-19T12:41:36.605Z,2.10
2023-04-19T12:44:06.274Z,2.20
2023-04-19T12:46:41.647Z,2.50
2023-04-19T12:49:23.241Z,2.83
2023-04-19T12:51:57.073Z,2.30
2023-04-19T12:54:30.021Z,2.40
2023-04-19T12:56:58.940Z,2.53
2023-04-19T12:59:27.258Z,2.28
2023-04-19T13:29:45.333Z,2.10
2023-04-19T13:36:03.930Z,2.40
2023-04-19T13:38:50.852Z,2.50
2023-04-19T13:48:35.731Z,2.65
2023-04-19T14:01:54.060Z,2.30
2023-04-19T14:07:21.174Z,2.35
2023-04-19T14:29:54.270Z,2.88
2023-04-19T14:56:57.396Z,3.35
2023-04-19T15:41:20.735Z,3.65
2023-04-19T15:43:47.270Z,3.30
2023-04-19T15:46:14.323Z,3.38
2023-04-19T15:51:35.197Z,2.83
2023-04-19T15:54:01.766Z,3.28
2023-04-19T15:56:28.358Z,3.35
2023-04-19T15:58:54.834Z,3.67
2023-04-19T16:01:21.337Z,3.50
2023-04-19T16:03:48.060Z,3.30
2023-04-19T16:06:14.641Z,2.97
2023-04-19T16:08:41.151Z,3.15
2023-04-19T16:11:07.739Z,3.10
2023-04-19T16:13:34.239Z,3.47
2023-04-19T16:16:01.128Z,3.72
2023-04-19T16:18:27.698Z,3.58
2023-04-19T16:20:54.587Z,3.10
2023-04-19T16:23:21.401Z,3.47
2023-04-19T16:25:47.946Z,3.60
2023-04-19T16:28:14.466Z,2.88
2023-04-19T16:30:40.979Z,2.53
2023-04-19T16:33:07.551Z,2.45
2023-04-19T16:35:34.131Z,2.78
2023-04-19T16:38:00.661Z,2.55
2023-04-19T16:40:27.246Z,2.65
2023-04-19T16:42:53.720Z,2.30
2023-04-19T16:45:20.247Z,2.78
2023-04-19T16:47:46.998Z,2.28
2023-04-19T16:50:13.942Z,2.60
2023-04-19T16:52:40.701Z,2.20
2023-04-19T16:55:07.808Z,2.33
2023-04-19T16:57:34.416Z,2.25
2023-04-19T17:00:00.907Z,2.60
2023-04-19T17:02:27.673Z,2.50
2023-04-19T17:04:54.506Z,2.40
2023-04-19T17:07:21.068Z,2.50
2023-04-19T17:09:47.637Z,2.13
2023-04-19T17:12:14.234Z,2.20
2023-04-19T17:14:40.748Z,2.50
2023-04-19T17:17:08.151Z,2.00
2023-04-19T17:19:36.431Z,2.03
2023-04-19T17:22:02.942Z,2.38
2023-04-19T17:24:29.449Z,2.25
2023-04-19T17:26:56.002Z,2.13
2023-04-19T17:29:22.524Z,2.00
2023-04-19T17:31:49.097Z,2.28
2023-04-19T17:34:15.748Z,1.92
2023-04-19T17:36:42.279Z,2.30
2023-04-19T17:39:08.788Z,2.10
2023-04-19T17:41:35.275Z,1.90
2023-04-19T17:44:01.851Z,2.22
2023-04-19T17:46:28.410Z,1.70
2023-04-19T17:48:54.882Z,2.10
2023-04-19T17:51:21.482Z,1.92
2023-04-19T17:53:47.977Z,1.85
2023-04-19T17:56:14.449Z,1.98
2023-04-19T17:58:40.974Z,2.05
2023-04-19T18:01:07.515Z,1.80
2023-04-19T18:03:34.092Z,1.70
2023-04-19T18:06:00.637Z,2.10
2023-04-19T18:08:27.128Z,1.83
2023-04-19T18:10:53.708Z,1.80
2023-04-19T18:13:20.213Z,1.63
2023-04-19T18:15:46.718Z,1.65
2023-04-19T18:18:13.231Z,1.50
2023-04-19T18:20:39.737Z,1.95
2023-04-19T18:23:06.252Z,2.05
2023-04-19T18:25:32.735Z,1.80
2023-04-19T18:27:59.237Z,2.00
2023-04-19T18:30:25.809Z,1.83
2023-04-19T18:32:52.331Z,2.00
2023-04-19T18:35:18.950Z,2.03
2023-04-19T18:37:45.447Z,1.80
2023-04-19T18:40:12.266Z,1.90
2023-04-19T18:42:39.154Z,2.25
2023-04-19T18:45:06.235Z,1.77
2023-04-19T18:47:32.819Z,2.10
2023-04-19T18:50:05.374Z,1.98
2023-04-19T18:52:34.632Z,2.28
2023-04-19T18:55:01.237Z,1.80
2023-04-19T18:57:28.106Z,1.73
2023-04-19T18:59:57.553Z,2.20
2023-04-19T19:02:24.317Z,1.92
2023-04-19T19:04:57.838Z,2.20
2023-04-19T19:10:01.073Z,2.03
2023-04-19T19:12:28.496Z,2.28
2023-04-19T19:14:55.009Z,2.00
2023-04-19T19:17:22.235Z,1.90
2023-04-19T19:19:48.911Z,2.40
2023-04-19T19:22:25.795Z,2.13
2023-04-19T19:24:54.649Z,2.15
2023-04-19T19:27:21.157Z,2.58
2023-04-19T19:29:47.650Z,2.17
2023-04-19T19:32:14.205Z,2.40
2023-04-19T19:34:53.777Z,2.30
2023-04-19T19:37:21.859Z,2.00
2023-04-19T19:39:48.469Z,2.00
2023-04-19T19:42:18.739Z,2.35
2023-04-19T19:44:45.393Z,1.70
2023-04-19T19:47:13.200Z,2.13
2023-04-19T19:49:55.209Z,2.38
2023-04-19T19:52:27.581Z,1.75
2023-04-19T19:54:54.183Z,1.95
2023-04-19T19:58:14.170Z,2.10
2023-04-19T20:00:31.819Z,2.20
2023-04-19T20:02:56.472Z,2.47
2023-04-19T20:05:24.351Z,2.15
2023-04-19T20:10:20.685Z,2.20
2023-04-19T20:12:47.575Z,2.38
2023-04-19T20:15:14.154Z,2.05
2023-04-19T20:17:40.971Z,2.10
2023-04-19T20:20:08.489Z,2.22
2023-04-19T20:22:35.598Z,2.08
2023-04-19T20:25:02.177Z,2.35
2023-04-19T20:27:28.746Z,2.50
2023-04-19T20:29:56.181Z,2.42
2023-04-19T20:32:22.839Z,2.65
2023-04-19T20:34:49.469Z,2.33
2023-04-19T20:37:15.957Z,2.35
2023-04-19T20:39:42.485Z,2.13
2023-04-19T20:42:09.085Z,2.30
2023-04-19T20:44:35.573Z,2.30
2023-04-19T20:47:02.303Z,2.92
2023-04-19T20:49:28.828Z,2.60
2023-04-19T20:51:55.383Z,1.92
2023-04-19T20:54:21.927Z,2.05
2023-04-19T20:56:48.517Z,2.03
2023-04-19T20:59:15.289Z,2.15
2023-04-19T21:01:42.098Z,2.85
2023-04-19T21:04:08.823Z,2.60
2023-04-19T21:06:35.452Z,2.60
2023-04-19T21:09:01.930Z,2.70
2023-04-19T21:11:28.425Z,2.47
2023-04-19T21:13:54.941Z,2.55
2023-04-19T21:16:21.493Z,2.83
2023-04-19T21:18:47.986Z,3.30
2023-04-19T21:21:14.496Z,2.60
2023-04-19T21:23:40.958Z,2.42
2023-04-19T21:26:07.553Z,2.78
2023-04-19T21:28:34.756Z,2.63
2023-04-19T21:31:01.293Z,2.88
2023-04-19T21:33:27.996Z,3.15
2023-04-19T21:35:54.580Z,3.00
2023-04-19T21:38:21.070Z,2.40
2023-04-19T21:40:47.582Z,2.58
2023-04-19T21:43:14.081Z,2.80
2023-04-19T21:45:40.590Z,3.03
2023-04-19T21:48:07.127Z,3.38
2023-04-19T21:50:33.861Z,2.58
2023-04-19T21:53:00.438Z,2.53
2023-04-19T21:55:27.069Z,3.13
2023-04-19T21:57:53.615Z,2.60
2023-04-19T22:00:20.203Z,2.78
2023-04-19T22:02:46.873Z,2.92
2023-04-19T22:05:13.546Z,3.05
2023-04-19T22:07:40.032Z,3.28
2023-04-19T22:10:07.491Z,3.38
2023-04-19T22:12:34.247Z,3.28
2023-04-19T22:15:01.571Z,3.22
2023-04-19T22:17:29.313Z,2.90
2023-04-19T22:19:55.903Z,3.35
2023-04-19T22:22:22.408Z,2.70
2023-04-19T22:24:57.569Z,3.45
2023-04-19T22:27:25.095Z,3.38
2023-04-19T22:29:51.633Z,3.40
2023-04-19T22:32:18.457Z,3.05
2023-04-19T22:34:45.126Z,2.90
2023-04-19T22:37:11.651Z,2.38
2023-04-19T22:39:38.143Z,3.15
2023-04-19T22:42:04.765Z,3.28
2023-04-19T22:44:31.320Z,3.40
2023-04-19T22:46:59.777Z,3.25
2023-04-19T22:49:26.364Z,2.60
2023-04-19T22:51:52.943Z,2.95
2023-04-19T22:54:19.548Z,2.63
2023-04-19T22:56:46.067Z,2.63
2023-04-19T22:59:13.062Z,3.05
2023-04-19T23:01:39.848Z,3.13
2023-04-19T23:04:06.359Z,3.13
2023-04-19T23:06:32.891Z,3.25
2023-04-19T23:08:59.545Z,2.67
2023-04-19T23:11:26.401Z,2.60
2023-04-19T23:13:52.940Z,3.00
2023-04-19T23:16:19.817Z,2.55
2023-04-19T23:34:12.536Z,2.85
2023-04-19T23:36:39.050Z,3.03
2023-04-19T23:39:05.565Z,2.65
2023-04-19T23:41:32.077Z,3.10
2023-04-19T23:43:58.558Z,3.40
2023-04-19T23:46:25.115Z,2.70
2023-04-19T23:48:52.553Z,2.78
2023-04-19T23:51:19.091Z,3.17
2023-04-19T23:53:46.699Z,3.10
2023-04-19T23:56:13.186Z,2.80
2023-04-19T23:58:39.791Z,2.85
